Time;durP1;ratioP1;P1;durP2;ratioP2;P2;SDS_P1;SDS_P2;PMS_P1;PMS_P2;Temp;Humidity;BMP_temperature;BMP_pressure;BME280_temperature;BME280_humidity;BME280_pressure;Samples;Min_cycle;Max_cycle;Signal;HPM_P1;HPM_P2
2022/03/18 00:00:01;;;;;;;5.22;3.42;;;;;;;;;;5032091;28;20072;-72
2022/03/18 00:02:27;;;;;;;5.63;3.30;;;;;;;;;;5035521;28;20091;-76
2022/03/18 00:04:55;;;;;;;9.98;3.67;;;;;;;;;;5034438;28;20698;-73
2022/03/18 00:07:21;;;;;;;3.88;3.42;;;;;;;;;;5029703;28;20022;-72
2022/03/18 00:09:48;;;;;;;9.07;3.67;;;;;;;;;;5030178;28;20055;-73
2022/03/18 00:12:14;;;;;;;5.82;3.15;;;;;;;;;;5034882;28;20519;-74
2022/03/18 00:14:41;;;;;;;5.78;3.10;;;;;;;;;;5031686;28;20045;-72
2022/03/18 00:17:08;;;;;;;5.97;3.15;;;;;;;;;;5032756;28;20115;-72
2022/03/18 00:19:34;;;;;;;6.40;3.65;;;;;;;;;;5033373;28;20037;-74
2022/03/18 00:22:01;;;;;;;11.20;4.13;;;;;;;;;;5036914;28;20025;-72
2022/03/18 00:24:33;;;;;;;6.03;3.25;;;;;;;;;;5039670;28;20039;-72
2022/03/18 00:27:00;;;;;;;5.80;3.15;;;;;;;;;;5038187;28;20033;-72
2022/03/18 00:29:27;;;;;;;7.78;3.40;;;;;;;;;;5038246;28;20037;-74
2022/03/18 00:31:53;;;;;;;7.63;3.10;;;;;;;;;;5041658;28;20021;-72
2022/03/18 00:34:19;;;;;;;7.88;3.72;;;;;;;;;;5038504;28;20044;-72
2022/03/18 00:36:46;;;;;;;5.72;2.90;;;;;;;;;;5031938;28;20068;-72
2022/03/18 00:39:12;;;;;;;7.72;3.20;;;;;;;;;;5034937;28;20094;-72
2022/03/18 00:41:38;;;;;;;10.10;3.85;;;;;;;;;;5037358;28;20033;-72
2022/03/18 00:44:04;;;;;;;4.10;3.00;;;;;;;;;;5038837;28;20039;-72
2022/03/18 00:46:30;;;;;;;7.45;3.10;;;;;;;;;;5036243;28;20078;-72
2022/03/18 00:54:26;;;;;;;4.35;3.15;;;;;;;;;;5034407;28;20560;-73
2022/03/18 00:56:52;;;;;;;8.02;2.92;;;;;;;;;;5034843;28;20032;-73
2022/03/18 00:59:18;;;;;;;3.67;2.83;;;;;;;;;;5035875;28;20029;-72
2022/03/18 01:01:44;;;;;;;8.07;3.00;;;;;;;;;;5032329;28;20513;-73
2022/03/18 01:04:10;;;;;;;6.10;2.90;;;;;;;;;;5035502;28;20036;-73
2022/03/18 01:06:36;;;;;;;4.22;2.80;;;;;;;;;;5034629;28;20026;-72
2022/03/18 01:09:04;;;;;;;5.80;2.90;;;;;;;;;;5033684;28;20037;-72
2022/03/18 01:11:30;;;;;;;6.70;2.83;;;;;;;;;;5035323;28;20033;-72
2022/03/18 01:13:56;;;;;;;6.72;2.85;;;;;;;;;;5032288;28;20552;-72
2022/03/18 01:16:23;;;;;;;5.50;3.08;;;;;;;;;;5034389;28;20514;-73
2022/03/18 01:18:49;;;;;;;4.63;2.95;;;;;;;;;;5035260;28;20619;-72
2022/03/18 01:21:15;;;;;;;9.40;3.55;;;;;;;;;;5032784;28;20514;-72
2022/03/18 01:23:41;;;;;;;7.95;3.33;;;;;;;;;;5034093;28;20021;-72
2022/03/18 01:26:07;;;;;;;5.00;3.28;;;;;;;;;;5034038;28;20462;-72
2022/03/18 01:28:33;;;;;;;5.60;3.10;;;;;;;;;;5033338;28;20025;-73
2022/03/18 01:30:59;;;;;;;7.45;3.33;;;;;;;;;;5038396;28;20037;-72
2022/03/18 01:33:26;;;;;;;6.65;3.45;;;;;;;;;;5040112;28;20021;-72
2022/03/18 01:35:52;;;;;;;7.03;3.17;;;;;;;;;;5039054;28;20477;-72
2022/03/18 01:38:18;;;;;;;4.75;3.67;;;;;;;;;;5036894;28;20040;-72
2022/03/18 01:40:44;;;;;;;5.45;3.20;;;;;;;;;;5040277;28;20063;-72
2022/03/18 01:43:11;;;;;;;5.20;3.08;;;;;;;;;;5036859;28;20033;-72
2022/03/18 01:45:38;;;;;;;12.02;2.97;;;;;;;;;;5037648;28;20728;-72
2022/03/18 01:48:05;;;;;;;8.82;2.53;;;;;;;;;;5039049;28;20067;-72
2022/03/18 01:50:31;;;;;;;3.67;2.90;;;;;;;;;;5036088;28;20032;-72
2022/03/18 01:52:58;;;;;;;5.45;3.22;;;;;;;;;;5036363;28;20025;-71
2022/03/18 01:55:25;;;;;;;3.63;3.28;;;;;;;;;;5038697;28;20041;-72
2022/03/18 01:57:51;;;;;;;6.78;3.63;;;;;;;;;;5038114;28;20028;-72
2022/03/18 02:00:21;;;;;;;5.55;3.22;;;;;;;;;;5040085;28;20416;-72
2022/03/18 02:02:48;;;;;;;5.93;3.15;;;;;;;;;;5036434;28;20022;-72
2022/03/18 02:05:14;;;;;;;8.05;3.70;;;;;;;;;;5038005;28;20107;-72
2022/03/18 02:07:40;;;;;;;8.63;3.90;;;;;;;;;;5039736;28;20028;-72
2022/03/18 02:10:07;;;;;;;6.40;3.35;;;;;;;;;;5036828;28;20053;-72
2022/03/18 02:12:33;;;;;;;3.45;2.72;;;;;;;;;;5038877;28;20063;-72
2022/03/18 02:14:59;;;;;;;5.30;2.40;;;;;;;;;;5031072;28;20045;-72
2022/03/18 02:17:26;;;;;;;5.35;2.92;;;;;;;;;;5045007;28;20032;-72
2022/03/18 02:19:52;;;;;;;4.25;2.33;;;;;;;;;;5042020;28;20090;-72
2022/03/18 02:22:21;;;;;;;4.72;2.38;;;;;;;;;;5041853;28;20029;-72
2022/03/18 02:24:48;;;;;;;6.32;2.75;;;;;;;;;;5035708;28;20446;-72
2022/03/18 02:27:14;;;;;;;4.13;2.55;;;;;;;;;;5039964;28;20090;-72
2022/03/18 02:29:41;;;;;;;3.75;2.70;;;;;;;;;;5038837;28;20033;-72
2022/03/18 02:32:07;;;;;;;3.95;2.90;;;;;;;;;;5037875;28;20018;-72
2022/03/18 02:34:35;;;;;;;6.97;3.05;;;;;;;;;;5042733;28;20037;-72
2022/03/18 02:37:01;;;;;;;10.90;3.08;;;;;;;;;;5039257;28;20458;-71
2022/03/18 02:39:27;;;;;;;7.90;3.70;;;;;;;;;;5037817;28;20029;-72
2022/03/18 02:41:53;;;;;;;3.83;2.50;;;;;;;;;;5034824;28;20545;-72
2022/03/18 02:44:19;;;;;;;4.15;2.45;;;;;;;;;;5033009;28;20032;-72
2022/03/18 02:46:46;;;;;;;6.60;3.00;;;;;;;;;;5030879;28;20037;-72
2022/03/18 02:49:12;;;;;;;5.53;2.90;;;;;;;;;;5038877;28;20044;-72
2022/03/18 02:51:38;;;;;;;7.05;3.30;;;;;;;;;;5035260;28;20091;-72
2022/03/18 02:54:05;;;;;;;5.35;3.10;;;;;;;;;;5031626;28;20175;-72
2022/03/18 02:56:31;;;;;;;5.50;3.40;;;;;;;;;;5033855;28;20064;-72
2022/03/18 02:58:57;;;;;;;5.28;3.08;;;;;;;;;;5028958;28;20104;-72
2022/03/18 03:01:25;;;;;;;7.25;3.30;;;;;;;;;;5033429;28;20044;-72
2022/03/18 03:03:51;;;;;;;5.13;2.97;;;;;;;;;;5033513;28;20028;-72
2022/03/18 03:09:02;;;;;;;4.10;2.85;;;;;;;;;;5031161;28;20513;-72
2022/03/18 03:11:29;;;;;;;10.75;3.83;;;;;;;;;;5033974;28;20033;-72
2022/03/18 03:13:55;;;;;;;7.80;3.58;;;;;;;;;;5033456;28;20529;-72
2022/03/18 03:16:21;;;;;;;8.13;3.90;;;;;;;;;;5032115;28;20064;-72
2022/03/18 03:18:48;;;;;;;9.52;4.65;;;;;;;;;;5033607;28;20025;-72
2022/03/18 03:21:14;;;;;;;7.18;3.38;;;;;;;;;;5031325;28;20032;-72
2022/03/18 03:23:40;;;;;;;9.10;3.63;;;;;;;;;;5033277;28;20024;-73
2022/03/18 03:26:06;;;;;;;6.07;3.67;;;;;;;;;;5031152;28;20029;-72
2022/03/18 03:28:33;;;;;;;4.65;3.67;;;;;;;;;;5030978;28;20040;-72
2022/03/18 03:31:00;;;;;;;19.45;5.07;;;;;;;;;;5033783;28;20025;-72
2022/03/18 03:33:26;;;;;;;7.47;3.72;;;;;;;;;;5033911;28;20028;-72
2022/03/18 03:35:52;;;;;;;4.85;3.85;;;;;;;;;;5032210;28;20111;-72
2022/03/18 03:38:20;;;;;;;5.60;3.83;;;;;;;;;;5029247;28;20036;-72
2022/03/18 03:40:47;;;;;;;5.95;3.85;;;;;;;;;;5028732;28;20048;-72
2022/03/18 03:43:13;;;;;;;7.55;4.10;;;;;;;;;;5032450;28;20033;-72
2022/03/18 03:45:40;;;;;;;5.90;3.38;;;;;;;;;;5032494;28;20112;-72
2022/03/18 03:48:07;;;;;;;6.05;3.35;;;;;;;;;;5030993;28;20034;-72
2022/03/18 03:50:33;;;;;;;5.22;3.30;;;;;;;;;;5031238;28;20790;-72
2022/03/18 03:52:59;;;;;;;8.02;3.30;;;;;;;;;;5032306;28;20063;-72
2022/03/18 03:55:25;;;;;;;7.82;3.10;;;;;;;;;;5033877;28;20059;-72
2022/03/18 03:57:51;;;;;;;8.43;3.35;;;;;;;;;;5034945;28;20033;-72
2022/03/18 04:00:17;;;;;;;6.63;3.42;;;;;;;;;;5036181;28;20036;-72
2022/03/18 04:02:44;;;;;;;7.05;3.08;;;;;;;;;;5028873;28;20595;-72
2022/03/18 04:05:10;;;;;;;5.22;2.90;;;;;;;;;;5032977;28;20032;-72
2022/03/18 04:07:40;;;;;;;5.65;3.15;;;;;;;;;;5034786;28;20033;-72
2022/03/18 04:10:08;;;;;;;6.78;3.20;;;;;;;;;;5032688;28;20103;-72
2022/03/18 04:12:35;;;;;;;5.70;3.00;;;;;;;;;;5033375;28;20052;-71
2022/03/18 04:15:01;;;;;;;7.15;3.13;;;;;;;;;;5032847;28;20037;-72
2022/03/18 04:17:36;;;;;;;5.97;2.67;;;;;;;;;;5031728;28;20025;-72
2022/03/18 04:20:02;;;;;;;6.50;3.55;;;;;;;;;;5032561;28;20036;-72
2022/03/18 04:22:28;;;;;;;6.43;3.13;;;;;;;;;;5034510;28;20067;-72
2022/03/18 04:24:54;;;;;;;6.03;3.00;;;;;;;;;;5032002;28;20076;-72
2022/03/18 04:27:21;;;;;;;4.93;3.15;;;;;;;;;;5034004;28;20060;-72
2022/03/18 04:29:47;;;;;;;5.63;3.10;;;;;;;;;;5031287;28;20497;-72
2022/03/18 04:32:13;;;;;;;5.53;2.90;;;;;;;;;;5032390;28;20595;-72
2022/03/18 04:34:39;;;;;;;11.05;3.63;;;;;;;;;;5034897;28;20408;-72
2022/03/18 04:37:05;;;;;;;5.95;3.10;;;;;;;;;;5033929;28;20688;-72
2022/03/18 04:39:31;;;;;;;4.28;3.50;;;;;;;;;;5032935;28;20099;-72
2022/03/18 04:41:58;;;;;;;5.05;3.08;;;;;;;;;;5030393;28;20021;-72
2022/03/18 04:44:24;;;;;;;6.32;3.00;;;;;;;;;;5034245;28;20474;-72
2022/03/18 04:46:50;;;;;;;11.63;3.83;;;;;;;;;;5031851;28;20386;-72
2022/03/18 04:49:16;;;;;;;4.15;2.92;;;;;;;;;;5032871;28;20017;-73
2022/03/18 04:51:43;;;;;;;5.03;2.70;;;;;;;;;;5033163;28;20742;-72
2022/03/18 04:54:09;;;;;;;6.25;2.63;;;;;;;;;;5031317;28;20041;-72
2022/03/18 04:59:20;;;;;;;5.05;2.92;;;;;;;;;;5032727;28;20104;-72
2022/03/18 05:01:47;;;;;;;3.85;2.65;;;;;;;;;;5031316;28;20021;-72
2022/03/18 05:04:13;;;;;;;4.63;3.08;;;;;;;;;;5031726;28;20130;-72
2022/03/18 05:06:39;;;;;;;4.43;2.78;;;;;;;;;;5033387;28;20025;-72
2022/03/18 05:09:06;;;;;;;3.97;2.65;;;;;;;;;;5030696;28;20037;-73
2022/03/18 05:11:32;;;;;;;6.13;2.80;;;;;;;;;;5031703;28;20025;-72
2022/03/18 05:13:58;;;;;;;7.60;2.80;;;;;;;;;;5032719;28;20143;-73
2022/03/18 05:16:25;;;;;;;9.68;3.90;;;;;;;;;;5030668;28;20049;-73
2022/03/18 05:18:51;;;;;;;5.82;3.58;;;;;;;;;;5033855;28;20113;-73
2022/03/18 05:21:18;;;;;;;5.82;3.30;;;;;;;;;;5030055;28;20034;-72
2022/03/18 05:23:44;;;;;;;4.70;3.60;;;;;;;;;;5032031;28;20383;-72
2022/03/18 05:26:10;;;;;;;5.82;3.78;;;;;;;;;;5033372;28;20033;-72
2022/03/18 05:28:37;;;;;;;5.82;3.30;;;;;;;;;;5030026;28;20091;-74
2022/03/18 05:31:03;;;;;;;7.90;4.35;;;;;;;;;;5032226;28;20107;-73
2022/03/18 05:33:29;;;;;;;4.57;3.05;;;;;;;;;;5036602;28;20491;-73
2022/03/18 05:35:56;;;;;;;6.95;3.47;;;;;;;;;;5033224;28;20041;-73
2022/03/18 05:38:22;;;;;;;9.13;4.28;;;;;;;;;;5030342;28;20021;-73
2022/03/18 05:40:48;;;;;;;4.60;3.05;;;;;;;;;;5030709;28;20036;-73
2022/03/18 05:43:14;;;;;;;9.80;3.35;;;;;;;;;;5032424;28;20395;-73
2022/03/18 05:45:40;;;;;;;5.55;3.78;;;;;;;;;;5029308;28;20132;-73
2022/03/18 05:48:07;;;;;;;7.75;3.55;;;;;;;;;;5033468;28;20029;-73
2022/03/18 05:50:34;;;;;;;10.50;3.60;;;;;;;;;;5030921;28;20122;-73
2022/03/18 05:53:00;;;;;;;5.90;3.72;;;;;;;;;;5031037;28;20056;-73
2022/03/18 05:56:52;;;;;;;9.82;4.75;;;;;;;;;;5032820;28;20672;-74
2022/03/18 05:58:14;;;;;;;7.10;4.10;;;;;;;;;;5029189;28;20116;-73
2022/03/18 06:00:41;;;;;;;7.18;4.22;;;;;;;;;;5030247;28;20037;-74
2022/03/18 06:03:07;;;;;;;8.25;4.13;;;;;;;;;;5032201;28;20698;-73
2022/03/18 06:05:33;;;;;;;7.30;3.97;;;;;;;;;;5031327;28;20021;-73
2022/03/18 06:11:48;;;;;;;23.48;5.15;;;;;;;;;;5028488;28;20033;-73
2022/03/18 06:13:30;;;;;;;10.45;3.97;;;;;;;;;;5029988;28;20190;-74
2022/03/18 06:15:56;;;;;;;8.70;3.90;;;;;;;;;;5026572;28;20033;-74
2022/03/18 06:18:22;;;;;;;7.25;3.50;;;;;;;;;;5026693;28;20200;-73
2022/03/18 06:20:51;;;;;;;5.35;3.40;;;;;;;;;;5030394;28;20037;-73
2022/03/18 06:23:18;;;;;;;6.57;3.42;;;;;;;;;;5030421;28;20520;-74
2022/03/18 06:25:44;;;;;;;6.25;3.42;;;;;;;;;;5030535;28;20417;-74
2022/03/18 06:28:10;;;;;;;6.32;3.70;;;;;;;;;;5030471;28;20147;-74
2022/03/18 06:30:36;;;;;;;6.80;3.42;;;;;;;;;;5030655;28;20025;-74
2022/03/18 06:33:03;;;;;;;8.88;3.35;;;;;;;;;;5034978;28;20033;-74
2022/03/18 06:35:29;;;;;;;5.82;3.38;;;;;;;;;;5030957;28;20048;-73
2022/03/18 06:37:55;;;;;;;4.95;3.30;;;;;;;;;;5037048;28;20031;-75
2022/03/18 06:40:21;;;;;;;10.25;3.60;;;;;;;;;;5032853;28;20091;-73
2022/03/18 06:42:47;;;;;;;9.93;5.03;;;;;;;;;;5029487;28;20032;-73
2022/03/18 06:45:13;;;;;;;15.40;5.57;;;;;;;;;;5027415;28;20063;-72
2022/03/18 06:47:39;;;;;;;13.93;4.85;;;;;;;;;;5032705;28;20839;-72
2022/03/18 06:50:06;;;;;;;7.35;4.45;;;;;;;;;;5030723;28;20381;-73
2022/03/18 06:52:32;;;;;;;9.75;5.00;;;;;;;;;;5030182;28;20044;-73
2022/03/18 06:54:59;;;;;;;8.90;4.82;;;;;;;;;;5027565;28;20045;-73
2022/03/18 06:57:25;;;;;;;8.00;4.72;;;;;;;;;;5027372;28;20112;-73
2022/03/18 06:59:51;;;;;;;10.60;4.30;;;;;;;;;;5028813;28;20032;-73
2022/03/18 07:02:17;;;;;;;10.27;3.85;;;;;;;;;;5030012;28;20030;-73
2022/03/18 07:04:43;;;;;;;6.13;3.72;;;;;;;;;;5028902;28;20038;-72
2022/03/18 07:07:09;;;;;;;11.68;3.97;;;;;;;;;;5032059;28;20035;-72
2022/03/18 07:09:36;;;;;;;8.63;4.03;;;;;;;;;;5027999;28;20033;-73
2022/03/18 07:12:03;;;;;;;7.03;3.88;;;;;;;;;;5032552;28;20047;-73
2022/03/18 07:14:29;;;;;;;8.27;3.95;;;;;;;;;;5028685;28;20043;-74
2022/03/18 07:19:40;;;;;;;8.77;4.55;;;;;;;;;;5031658;28;20459;-73
2022/03/18 07:22:07;;;;;;;9.38;3.90;;;;;;;;;;5027578;28;20076;-72
2022/03/18 07:24:33;;;;;;;16.88;5.93;;;;;;;;;;5030009;28;20029;-73
2022/03/18 07:26:59;;;;;;;14.32;7.75;;;;;;;;;;5038417;28;20642;-73
2022/03/18 07:29:26;;;;;;;8.43;4.18;;;;;;;;;;5028030;28;20455;-72
2022/03/18 07:31:54;;;;;;;8.20;3.88;;;;;;;;;;5030874;28;20033;-73
2022/03/18 07:34:21;;;;;;;14.40;3.90;;;;;;;;;;5029813;28;20094;-74
2022/03/18 07:36:48;;;;;;;9.10;5.18;;;;;;;;;;5031221;28;20060;-73
2022/03/18 07:39:14;;;;;;;15.25;5.55;;;;;;;;;;5027884;28;20030;-73
2022/03/18 07:41:40;;;;;;;7.63;4.28;;;;;;;;;;5030181;28;20029;-73
2022/03/18 07:44:06;;;;;;;11.98;3.97;;;;;;;;;;5036256;28;20381;-73
2022/03/18 07:46:33;;;;;;;12.23;7.80;;;;;;;;;;5028555;28;20079;-73
2022/03/18 07:48:59;;;;;;;8.35;4.95;;;;;;;;;;5031393;28;20036;-73
2022/03/18 07:51:25;;;;;;;6.28;4.10;;;;;;;;;;5027330;28;20072;-73
2022/03/18 07:53:51;;;;;;;8.40;4.70;;;;;;;;;;5029243;28;20022;-73
2022/03/18 07:56:17;;;;;;;9.20;4.88;;;;;;;;;;5030583;28;20036;-73
2022/03/18 07:58:43;;;;;;;9.75;6.82;;;;;;;;;;5024660;28;20168;-73
2022/03/18 08:01:13;;;;;;;11.55;4.97;;;;;;;;;;5029517;28;20478;-73
2022/03/18 08:03:39;;;;;;;8.90;4.30;;;;;;;;;;5029270;28;20033;-72
2022/03/18 08:06:05;;;;;;;11.25;4.15;;;;;;;;;;5030456;28;20071;-72
2022/03/18 08:08:31;;;;;;;9.55;3.72;;;;;;;;;;5027494;28;20076;-73
2022/03/18 08:10:58;;;;;;;8.57;3.90;;;;;;;;;;5028237;28;20039;-73
2022/03/18 08:13:24;;;;;;;8.85;3.92;;;;;;;;;;5029661;28;20568;-73
2022/03/18 08:15:50;;;;;;;7.68;3.70;;;;;;;;;;5027923;28;20048;-73
2022/03/18 08:18:19;;;;;;;10.25;4.15;;;;;;;;;;5030600;28;20740;-73
2022/03/18 08:20:45;;;;;;;5.15;3.70;;;;;;;;;;5027390;28;20034;-73
2022/03/18 08:23:15;;;;;;;9.38;3.90;;;;;;;;;;5028912;28;20040;-73
2022/03/18 08:25:41;;;;;;;8.90;3.60;;;;;;;;;;5030755;28;20021;-73
2022/03/18 08:28:08;;;;;;;8.55;4.55;;;;;;;;;;5028184;28;20068;-73
2022/03/18 08:30:34;;;;;;;7.13;4.07;;;;;;;;;;5028159;28;20574;-73
2022/03/18 08:33:01;;;;;;;11.52;4.03;;;;;;;;;;5030234;28;20016;-74
2022/03/18 08:35:27;;;;;;;6.55;4.03;;;;;;;;;;5027340;28;20045;-73
2022/03/18 08:37:56;;;;;;;11.02;4.50;;;;;;;;;;5029971;28;20029;-72
2022/03/18 08:40:32;;;;;;;10.38;4.60;;;;;;;;;;5032083;28;20024;-72
2022/03/18 08:42:59;;;;;;;10.60;4.30;;;;;;;;;;5034799;28;20030;-74
2022/03/18 08:45:26;;;;;;;7.43;4.82;;;;;;;;;;5033218;28;20033;-72
2022/03/18 08:47:53;;;;;;;9.43;3.60;;;;;;;;;;5035017;28;20029;-71
2022/03/18 08:50:23;;;;;;;5.47;3.75;;;;;;;;;;5031149;28;20462;-71
2022/03/18 08:52:51;;;;;;;9.63;3.53;;;;;;;;;;5031992;28;20029;-71
2022/03/18 08:55:18;;;;;;;10.35;3.63;;;;;;;;;;5031668;28;20499;-71
2022/03/18 08:57:44;;;;;;;7.20;3.47;;;;;;;;;;5030977;28;20112;-71
2022/03/18 09:00:11;;;;;;;12.32;3.58;;;;;;;;;;5033632;28;20052;-71
2022/03/18 09:02:38;;;;;;;6.97;3.42;;;;;;;;;;5035078;28;20037;-71
2022/03/18 09:05:05;;;;;;;5.50;3.30;;;;;;;;;;5034195;28;20041;-72
2022/03/18 09:07:32;;;;;;;8.18;3.35;;;;;;;;;;5032911;28;20029;-71
2022/03/18 09:09:58;;;;;;;12.98;3.40;;;;;;;;;;5035895;28;20108;-73
2022/03/18 09:12:25;;;;;;;7.22;3.50;;;;;;;;;;5034562;28;20398;-71
2022/03/18 09:14:51;;;;;;;4.55;3.50;;;;;;;;;;5034464;28;20037;-75
2022/03/18 09:17:18;;;;;;;7.95;2.92;;;;;;;;;;5034772;28;20693;-70
2022/03/18 09:19:45;;;;;;;10.23;3.60;;;;;;;;;;5035401;28;20492;-71
2022/03/18 09:22:13;;;;;;;8.13;3.45;;;;;;;;;;5038350;28;20565;-70
2022/03/18 09:24:39;;;;;;;9.93;3.40;;;;;;;;;;5034697;28;20619;-70
2022/03/18 09:27:05;;;;;;;6.55;3.70;;;;;;;;;;5032845;28;20181;-71
2022/03/18 09:29:31;;;;;;;12.20;5.53;;;;;;;;;;5035680;28;20025;-71
2022/03/18 09:31:57;;;;;;;10.48;4.05;;;;;;;;;;5030967;28;20032;-71
2022/03/18 09:34:26;;;;;;;7.45;3.72;;;;;;;;;;5035458;28;20029;-72
2022/03/18 09:36:54;;;;;;;7.38;3.75;;;;;;;;;;5032285;28;20021;-72
2022/03/18 09:39:20;;;;;;;5.30;3.38;;;;;;;;;;5029820;28;20021;-71
2022/03/18 09:41:46;;;;;;;7.63;3.50;;;;;;;;;;5031557;28;20040;-71
2022/03/18 09:44:12;;;;;;;6.75;3.90;;;;;;;;;;5031295;28;20147;-71
2022/03/18 09:46:41;;;;;;;7.95;4.50;;;;;;;;;;5032600;28;20025;-71
2022/03/18 09:49:11;;;;;;;7.70;3.65;;;;;;;;;;5031119;28;20033;-71
2022/03/18 09:51:40;;;;;;;7.78;4.38;;;;;;;;;;5032113;28;20018;-71
2022/03/18 09:54:06;;;;;;;6.60;3.65;;;;;;;;;;5030934;28;20172;-71
2022/03/18 09:56:35;;;;;;;9.32;3.90;;;;;;;;;;5030997;28;20040;-71
2022/03/18 09:59:01;;;;;;;6.00;3.60;;;;;;;;;;5029360;28;20121;-71
2022/03/18 10:01:27;;;;;;;8.43;3.92;;;;;;;;;;5035186;28;20029;-71
2022/03/18 10:03:53;;;;;;;11.35;4.25;;;;;;;;;;5032286;28;20029;-71
2022/03/18 10:06:27;;;;;;;12.88;4.30;;;;;;;;;;5033555;28;20574;-71
2022/03/18 10:08:55;;;;;;;9.98;4.00;;;;;;;;;;5033202;28;20040;-71
2022/03/18 10:11:21;;;;;;;9.50;4.60;;;;;;;;;;5032306;28;20118;-71
2022/03/18 10:14:04;;;;;;;9.75;3.97;;;;;;;;;;5032827;28;20037;-70
2022/03/18 10:16:34;;;;;;;6.50;3.80;;;;;;;;;;5032446;28;20451;-70
2022/03/18 10:19:05;;;;;;;8.73;4.22;;;;;;;;;;5032210;28;20030;-71
2022/03/18 10:21:31;;;;;;;7.95;4.20;;;;;;;;;;5031870;28;20410;-71
2022/03/18 10:24:04;;;;;;;8.68;4.35;;;;;;;;;;5033558;28;20043;-71
2022/03/18 10:26:34;;;;;;;7.82;4.47;;;;;;;;;;5034313;28;20131;-71
2022/03/18 10:29:00;;;;;;;11.90;5.38;;;;;;;;;;5032294;28;20021;-71
2022/03/18 10:31:27;;;;;;;6.03;3.97;;;;;;;;;;5031743;28;20099;-71
2022/03/18 10:37:12;;;;;;;8.35;4.43;;;;;;;;;;5033308;28;20051;-72
2022/03/18 10:39:39;;;;;;;7.65;3.80;;;;;;;;;;5029509;28;20508;-71
2022/03/18 10:42:07;;;;;;;11.85;4.68;;;;;;;;;;5029978;28;20075;-75
2022/03/18 10:44:44;;;;;;;8.20;4.72;;;;;;;;;;5031536;28;20071;-71
2022/03/18 10:47:23;;;;;;;9.07;4.50;;;;;;;;;;5029793;28;20052;-71
2022/03/18 10:49:49;;;;;;;9.80;5.00;;;;;;;;;;5027161;28;20110;-71
2022/03/18 10:52:16;;;;;;;7.10;5.00;;;;;;;;;;5031451;28;20032;-73
2022/03/18 10:54:42;;;;;;;10.85;4.30;;;;;;;;;;5030716;28;20090;-72
2022/03/18 10:57:08;;;;;;;11.90;3.92;;;;;;;;;;5029099;28;20091;-72
2022/03/18 10:59:35;;;;;;;8.77;3.60;;;;;;;;;;5031772;28;20235;-71
2022/03/18 11:02:04;;;;;;;10.32;3.97;;;;;;;;;;5029057;28;20039;-72
2022/03/18 11:04:31;;;;;;;7.78;3.70;;;;;;;;;;5027900;28;20048;-71
2022/03/18 11:12:48;;;;;;;11.63;4.28;;;;;;;;;;5009395;28;20596;-78
2022/03/18 11:15:15;;;;;;;11.43;4.05;;;;;;;;;;5019137;28;20041;-71
2022/03/18 11:17:44;;;;;;;8.40;3.70;;;;;;;;;;5031089;28;20025;-72
2022/03/18 11:20:10;;;;;;;4.93;3.78;;;;;;;;;;5027752;28;20473;-71
2022/03/18 11:22:37;;;;;;;6.25;4.32;;;;;;;;;;5029982;28;20509;-72
2022/03/18 11:25:04;;;;;;;13.48;4.15;;;;;;;;;;5030874;28;20033;-71
2022/03/18 11:27:30;;;;;;;8.05;3.92;;;;;;;;;;5027540;28;20091;-72
2022/03/18 11:30:20;;;;;;;6.82;3.80;;;;;;;;;;5032855;28;20025;-72
2022/03/18 11:33:05;;;;;;;10.93;4.75;;;;;;;;;;5030149;28;20063;-71
2022/03/18 11:35:49;;;;;;;9.20;4.72;;;;;;;;;;5027078;28;20034;-71
2022/03/18 11:38:15;;;;;;;6.03;4.50;;;;;;;;;;5028180;28;20037;-71
2022/03/18 11:41:11;;;;;;;5.88;4.60;;;;;;;;;;5028377;28;20028;-72
2022/03/18 11:43:41;;;;;;;10.27;4.43;;;;;;;;;;5026004;28;20673;-71
2022/03/18 11:46:27;;;;;;;13.70;4.82;;;;;;;;;;5028303;28;20028;-71
2022/03/18 11:48:54;;;;;;;8.05;4.15;;;;;;;;;;5026897;28;20675;-71
2022/03/18 11:51:30;;;;;;;11.73;4.75;;;;;;;;;;5029217;28;20029;-71
2022/03/18 11:53:59;;;;;;;10.60;4.60;;;;;;;;;;5026698;28;20545;-71
2022/03/18 11:56:46;;;;;;;8.23;4.63;;;;;;;;;;5030285;28;20044;-72
2022/03/18 11:59:25;;;;;;;7.90;4.70;;;;;;;;;;5033237;28;20028;-71
2022/03/18 12:02:00;;;;;;;12.20;5.18;;;;;;;;;;5028055;28;20056;-72
2022/03/18 12:04:46;;;;;;;10.23;4.07;;;;;;;;;;5027649;28;20033;-71
2022/03/18 12:07:16;;;;;;;8.80;4.45;;;;;;;;;;5029499;28;20017;-72
2022/03/18 12:09:55;;;;;;;7.97;4.85;;;;;;;;;;5028127;28;20111;-71
2022/03/18 12:12:23;;;;;;;10.77;4.28;;;;;;;;;;5029601;28;20040;-71
2022/03/18 12:14:50;;;;;;;8.32;4.22;;;;;;;;;;5026177;28;20049;-71
2022/03/18 12:17:16;;;;;;;10.85;4.55;;;;;;;;;;5029415;28;20035;-72
2022/03/18 12:19:49;;;;;;;7.72;4.35;;;;;;;;;;5032786;28;20061;-71
2022/03/18 12:22:15;;;;;;;10.73;4.43;;;;;;;;;;5032510;28;20413;-71
2022/03/18 12:24:42;;;;;;;6.88;3.97;;;;;;;;;;5035293;28;20031;-72
2022/03/18 12:27:08;;;;;;;7.03;4.00;;;;;;;;;;5031686;28;20025;-71
2022/03/18 12:29:34;;;;;;;9.57;4.30;;;;;;;;;;5032199;28;20033;-72
2022/03/18 12:32:09;;;;;;;10.13;4.45;;;;;;;;;;5032178;28;20022;-72
2022/03/18 12:34:36;;;;;;;6.85;4.32;;;;;;;;;;5030997;28;20025;-80
2022/03/18 12:37:03;;;;;;;7.03;4.15;;;;;;;;;;5032252;28;20190;-71
2022/03/18 12:39:30;;;;;;;11.82;4.13;;;;;;;;;;5034059;28;20769;-71
2022/03/18 12:42:11;;;;;;;9.23;4.50;;;;;;;;;;5031501;28;20112;-71
2022/03/18 12:44:37;;;;;;;9.63;4.28;;;;;;;;;;5031526;28;20595;-71
2022/03/18 12:47:06;;;;;;;6.28;4.03;;;;;;;;;;5033415;28;20032;-71
2022/03/18 12:49:35;;;;;;;7.70;4.65;;;;;;;;;;5032332;28;20029;-71
2022/03/18 12:52:01;;;;;;;7.63;4.10;;;;;;;;;;5029855;28;20075;-72
2022/03/18 12:54:29;;;;;;;7.57;3.78;;;;;;;;;;5031027;28;20076;-72
2022/03/18 12:56:55;;;;;;;6.68;4.38;;;;;;;;;;5033772;28;20034;-71
2022/03/18 12:59:22;;;;;;;7.80;4.85;;;;;;;;;;5032391;28;20048;-72
2022/03/18 13:01:52;;;;;;;7.85;4.43;;;;;;;;;;5030355;28;20025;-72
2022/03/18 13:04:22;;;;;;;6.88;3.67;;;;;;;;;;5032142;28;20032;-72
2022/03/18 13:06:57;;;;;;;9.80;3.92;;;;;;;;;;5033356;28;20036;-71
2022/03/18 13:09:24;;;;;;;8.57;4.05;;;;;;;;;;5030381;28;20101;-71
2022/03/18 13:11:50;;;;;;;9.65;4.13;;;;;;;;;;5032155;28;20036;-71
2022/03/18 13:14:30;;;;;;;8.35;4.60;;;;;;;;;;5033106;28;20075;-71
2022/03/18 13:16:56;;;;;;;6.85;4.65;;;;;;;;;;5030519;28;20489;-72
2022/03/18 13:19:36;;;;;;;7.38;3.75;;;;;;;;;;5035751;28;20104;-71
2022/03/18 13:22:02;;;;;;;9.43;4.00;;;;;;;;;;5035309;28;20024;-71
2022/03/18 13:24:29;;;;;;;7.07;3.97;;;;;;;;;;5035455;28;20044;-72
2022/03/18 13:26:55;;;;;;;6.88;4.20;;;;;;;;;;5031104;28;20095;-72
2022/03/18 13:32:50;;;;;;;7.32;4.00;;;;;;;;;;5031257;28;20076;-78
2022/03/18 13:34:57;;;;;;;6.97;3.83;;;;;;;;;;5029057;28;20106;-72
2022/03/18 13:37:23;;;;;;;7.40;4.32;;;;;;;;;;5034478;28;20033;-73
2022/03/18 13:39:51;;;;;;;12.18;4.45;;;;;;;;;;5033273;28;20044;-72
2022/03/18 13:42:27;;;;;;;8.32;4.63;;;;;;;;;;5036973;28;20025;-73
2022/03/18 13:44:54;;;;;;;7.72;4.38;;;;;;;;;;5034120;28;20652;-74
2022/03/18 13:47:20;;;;;;;13.82;4.82;;;;;;;;;;5034217;28;20060;-72
2022/03/18 13:49:53;;;;;;;9.43;4.95;;;;;;;;;;5032290;28;20036;-72
2022/03/18 13:52:30;;;;;;;11.35;4.35;;;;;;;;;;5032157;28;20037;-72
2022/03/18 13:54:56;;;;;;;10.70;4.72;;;;;;;;;;5032243;28;20056;-75
2022/03/18 13:57:23;;;;;;;12.77;5.00;;;;;;;;;;5034442;28;20025;-74
2022/03/18 13:59:59;;;;;;;12.02;5.00;;;;;;;;;;5032968;28;20447;-74
2022/03/18 14:02:29;;;;;;;26.38;5.25;;;;;;;;;;5031520;28;20056;-73
2022/03/18 14:04:56;;;;;;;10.90;4.65;;;;;;;;;;5029225;28;20025;-74
2022/03/18 14:07:24;;;;;;;29.02;6.18;;;;;;;;;;5031869;28;20239;-74
2022/03/18 14:10:03;;;;;;;26.58;6.30;;;;;;;;;;5032487;28;20024;-73
2022/03/18 14:12:30;;;;;;;7.90;4.60;;;;;;;;;;5032212;28;20440;-73
2022/03/18 14:15:18;;;;;;;13.82;4.30;;;;;;;;;;5029611;28;20128;-73
2022/03/18 14:18:03;;;;;;;13.32;5.25;;;;;;;;;;5034148;28;20032;-74
2022/03/18 14:20:30;;;;;;;11.07;4.80;;;;;;;;;;5044347;28;20911;-73
2022/03/18 14:22:58;;;;;;;11.48;4.55;;;;;;;;;;5032084;28;20034;-72
2022/03/18 14:25:28;;;;;;;11.85;4.20;;;;;;;;;;5039377;28;20029;-73
2022/03/18 14:27:54;;;;;;;8.73;4.38;;;;;;;;;;5027711;28;20025;-72
2022/03/18 14:30:23;;;;;;;6.78;3.92;;;;;;;;;;5031303;28;20785;-76
2022/03/18 14:32:53;;;;;;;6.15;3.50;;;;;;;;;;5031408;28;20133;-72
2022/03/18 14:35:19;;;;;;;7.75;3.95;;;;;;;;;;5028991;28;20126;-72
2022/03/18 14:37:47;;;;;;;6.00;4.28;;;;;;;;;;5030623;28;20031;-81
2022/03/18 14:40:15;;;;;;;4.85;3.35;;;;;;;;;;5030635;28;20048;-72
2022/03/18 14:42:42;;;;;;;12.25;4.60;;;;;;;;;;5031643;28;20029;-72
2022/03/18 14:45:09;;;;;;;7.10;3.80;;;;;;;;;;5032337;28;20029;-73
2022/03/18 14:47:35;;;;;;;13.07;4.28;;;;;;;;;;5030362;28;20072;-73
2022/03/18 14:50:02;;;;;;;6.53;4.07;;;;;;;;;;5031725;28;20119;-71
2022/03/18 14:52:28;;;;;;;11.90;4.68;;;;;;;;;;5030099;28;20667;-72
2022/03/18 14:57:38;;;;;;;13.80;4.60;;;;;;;;;;5031333;28;20091;-72
2022/03/18 15:00:05;;;;;;;10.80;4.93;;;;;;;;;;5030421;28;20102;-73
2022/03/18 15:02:33;;;;;;;10.07;4.07;;;;;;;;;;5029188;28;20025;-72
2022/03/18 15:05:01;;;;;;;9.68;4.13;;;;;;;;;;5031343;28;20029;-73
2022/03/18 15:07:28;;;;;;;8.80;4.65;;;;;;;;;;5031370;28;20517;-71
2022/03/18 15:09:54;;;;;;;8.98;4.57;;;;;;;;;;5030858;28;20037;-72
2022/03/18 15:12:20;;;;;;;8.20;4.97;;;;;;;;;;5026439;28;20045;-72
2022/03/18 15:14:47;;;;;;;10.38;4.35;;;;;;;;;;5027513;28;20099;-72